Time;durP1;ratioP1;P1;durP2;ratioP2;P2;SDS_P1;SDS_P2;PMS_P1;PMS_P2;Temp;Humidity;BMP_temperature;BMP_pressure;BME280_temperature;BME280_humidity;BME280_pressure;Samples;Min_cycle;Max_cycle;Signal;HPM_P1;HPM_P2
2023/07/20 00:01:40;;;;;;;8.50;3.80;;;18.10;99.90;;;;;;5033917;28;20457;-77
2023/07/20 00:04:07;;;;;;;7.43;3.80;;;18.10;99.90;;;;;;5034011;28;20460;-77
2023/07/20 00:06:34;;;;;;;4.03;3.70;;;18.10;99.90;;;;;;5033689;28;20449;-77
2023/07/20 00:09:00;;;;;;;10.83;3.67;;;18.10;99.90;;;;;;5033859;28;20436;-77
2023/07/20 00:11:28;;;;;;;5.63;3.93;;;18.10;99.90;;;;;;5034229;28;20432;-78
2023/07/20 00:13:56;;;;;;;5.87;3.47;;;18.10;99.90;;;;;;5034159;28;20450;-77
2023/07/20 00:16:22;;;;;;;10.10;3.73;;;18.10;99.90;;;;;;5033333;28;20835;-77
2023/07/20 00:18:49;;;;;;;4.87;3.73;;;18.10;99.90;;;;;;5033720;28;20453;-77
2023/07/20 00:21:16;;;;;;;6.60;3.67;;;18.00;99.90;;;;;;5033094;28;20478;-77
2023/07/20 00:23:43;;;;;;;5.90;3.73;;;18.00;99.90;;;;;;5034105;28;20423;-77
2023/07/20 00:26:09;;;;;;;7.07;3.60;;;18.00;99.90;;;;;;5033781;28;20460;-77
2023/07/20 00:28:36;;;;;;;5.67;3.53;;;18.00;99.90;;;;;;5033013;28;20461;-77
2023/07/20 00:31:04;;;;;;;8.50;3.50;;;17.90;99.90;;;;;;5033869;28;20998;-77
2023/07/20 00:33:31;;;;;;;4.70;3.67;;;17.90;99.90;;;;;;5033406;28;20440;-77
2023/07/20 00:35:58;;;;;;;6.83;3.70;;;17.80;99.90;;;;;;5033466;28;20519;-77
2023/07/20 00:38:25;;;;;;;8.27;3.97;;;17.80;99.90;;;;;;5033576;28;20467;-77
2023/07/20 00:40:52;;;;;;;5.50;4.20;;;17.80;99.90;;;;;;5032197;28;20509;-77
2023/07/20 00:43:19;;;;;;;7.83;4.13;;;17.70;99.90;;;;;;5032868;28;20424;-77
2023/07/20 00:45:46;;;;;;;7.70;4.50;;;17.70;99.90;;;;;;5026049;28;20894;-77
2023/07/20 00:48:15;;;;;;;7.80;4.37;;;17.70;99.90;;;;;;5033416;28;20420;-77
2023/07/20 00:50:42;;;;;;;9.27;4.27;;;17.70;99.90;;;;;;5033483;28;20511;-77
2023/07/20 00:53:09;;;;;;;5.40;3.40;;;17.70;99.90;;;;;;5033414;28;20420;-77
2023/07/20 00:55:36;;;;;;;5.83;4.30;;;17.70;99.90;;;;;;5033013;28;20473;-77
2023/07/20 00:58:03;;;;;;;9.13;4.50;;;17.70;99.90;;;;;;5033027;28;20521;-77
2023/07/20 01:00:29;;;;;;;10.97;4.43;;;17.60;99.90;;;;;;5032480;28;20436;-77
2023/07/20 01:02:56;;;;;;;11.33;4.40;;;17.60;99.90;;;;;;5033234;28;20442;-77
2023/07/20 01:05:32;;;;;;;9.53;4.43;;;17.60;99.90;;;;;;5032861;28;20846;-77
2023/07/20 01:08:03;;;;;;;7.63;4.20;;;17.60;99.90;;;;;;5032681;28;20478;-77
2023/07/20 01:10:34;;;;;;;7.20;4.17;;;17.50;99.90;;;;;;5032731;28;20427;-77
2023/07/20 01:13:02;;;;;;;12.20;4.70;;;17.50;99.90;;;;;;5032800;28;20486;-77
2023/07/20 01:15:29;;;;;;;5.87;4.57;;;17.50;99.90;;;;;;5032470;28;20971;-78
2023/07/20 01:17:55;;;;;;;7.63;4.70;;;17.50;99.90;;;;;;5032815;28;20506;-77
2023/07/20 01:20:23;;;;;;;10.70;4.83;;;17.50;99.90;;;;;;5032956;28;20478;-77
2023/07/20 01:23:33;;;;;;;8.33;4.70;;;17.50;99.90;;;;;;5033212;28;20473;-77
2023/07/20 01:26:27;;;;;;;16.33;5.73;;;17.50;99.90;;;;;;4999211;28;20463;-76
2023/07/20 01:29:15;;;;;;;9.13;5.37;;;17.50;99.90;;;;;;5031754;28;20467;-77
2023/07/20 01:31:45;;;;;;;8.07;4.67;;;17.50;99.90;;;;;;5032319;28;20933;-77
2023/07/20 01:34:15;;;;;;;13.53;4.80;;;17.50;99.90;;;;;;5032590;28;20424;-77
2023/07/20 01:36:42;;;;;;;13.87;5.53;;;17.50;99.90;;;;;;5024423;28;20420;-76
2023/07/20 01:39:09;;;;;;;8.63;5.30;;;17.50;99.90;;;;;;5032076;28;20835;-76
2023/07/20 01:41:36;;;;;;;8.27;5.13;;;17.40;99.90;;;;;;5032038;28;21000;-77
2023/07/20 01:44:04;;;;;;;9.83;4.73;;;17.40;99.90;;;;;;5032334;28;20453;-76
2023/07/20 01:46:31;;;;;;;15.13;5.07;;;17.40;99.90;;;;;;5032466;28;20449;-77
2023/07/20 01:48:59;;;;;;;10.17;5.00;;;17.40;99.90;;;;;;5032152;28;20441;-77
2023/07/20 01:51:26;;;;;;;11.67;5.23;;;17.40;99.90;;;;;;5031797;28;20440;-77
2023/07/20 01:53:52;;;;;;;10.03;5.40;;;17.40;99.90;;;;;;5032033;28;20432;-77
2023/07/20 01:56:19;;;;;;;9.27;5.20;;;17.50;99.90;;;;;;5031910;28;20874;-77
2023/07/20 01:58:46;;;;;;;10.70;5.10;;;17.50;99.90;;;;;;5032019;28;20459;-77
2023/07/20 02:01:12;;;;;;;8.13;4.90;;;17.50;99.90;;;;;;5031850;28;20457;-77
2023/07/20 02:03:39;;;;;;;10.10;5.20;;;17.50;99.90;;;;;;5031898;28;20445;-76
2023/07/20 02:06:07;;;;;;;9.23;5.37;;;17.50;99.90;;;;;;5031890;28;20856;-76
2023/07/20 02:08:34;;;;;;;8.77;5.60;;;17.50;99.90;;;;;;5031321;28;20889;-76
2023/07/20 02:11:00;;;;;;;9.00;5.30;;;17.50;99.90;;;;;;5031467;28;20432;-76
2023/07/20 02:13:27;;;;;;;7.30;5.30;;;17.50;99.90;;;;;;5031327;28;20865;-76
2023/07/20 02:15:53;;;;;;;8.90;5.63;;;17.50;99.90;;;;;;5031840;28;20508;-76
2023/07/20 02:18:20;;;;;;;12.63;4.37;;;17.50;99.90;;;;;;5031539;28;20463;-77
2023/07/20 02:20:47;;;;;;;10.40;5.00;;;17.50;99.90;;;;;;5031075;28;20514;-76
2023/07/20 02:23:15;;;;;;;8.20;4.77;;;17.50;99.90;;;;;;5031429;28;20449;-76
2023/07/20 02:25:41;;;;;;;8.00;4.87;;;17.50;99.90;;;;;;5031267;28;20890;-76
2023/07/20 02:28:09;;;;;;;8.97;4.83;;;17.50;99.90;;;;;;5031194;28;20424;-77
2023/07/20 02:30:38;;;;;;;7.07;5.13;;;17.50;99.90;;;;;;5034086;28;20431;-76
2023/07/20 02:33:06;;;;;;;7.47;4.37;;;17.60;99.90;;;;;;5031529;28;20428;-77
2023/07/20 02:35:33;;;;;;;7.73;5.07;;;17.60;99.90;;;;;;5031059;28;20486;-76
2023/07/20 02:37:59;;;;;;;7.73;4.67;;;17.60;99.90;;;;;;5027185;28;20464;-77
2023/07/20 02:40:27;;;;;;;7.43;4.10;;;17.60;99.90;;;;;;5030812;28;20494;-77
2023/07/20 02:42:54;;;;;;;10.93;4.43;;;17.60;99.90;;;;;;5031516;28;20439;-76
2023/07/20 02:45:20;;;;;;;6.33;4.90;;;17.60;99.90;;;;;;5031342;28;20534;-77
2023/07/20 02:47:47;;;;;;;7.70;4.37;;;17.60;99.90;;;;;;5030910;28;20476;-76
2023/07/20 02:50:14;;;;;;;6.90;5.00;;;17.60;99.90;;;;;;5030929;28;21040;-76
2023/07/20 02:52:41;;;;;;;9.50;4.63;;;17.60;99.90;;;;;;5031028;28;20434;-77
2023/07/20 02:55:08;;;;;;;6.97;5.07;;;17.60;99.90;;;;;;5031199;28;20451;-76
2023/07/20 02:57:36;;;;;;;7.83;3.80;;;17.60;99.90;;;;;;5030780;28;20459;-77
2023/07/20 03:00:05;;;;;;;6.47;4.33;;;17.50;99.90;;;;;;5030596;28;20435;-76
2023/07/20 03:02:32;;;;;;;12.53;3.93;;;17.50;99.90;;;;;;5030056;28;20416;-76
2023/07/20 03:05:01;;;;;;;6.70;4.70;;;17.50;99.90;;;;;;5030929;28;20807;-76
2023/07/20 03:07:28;;;;;;;6.27;4.10;;;17.50;99.90;;;;;;5030891;28;20541;-77
2023/07/20 03:09:55;;;;;;;6.67;4.37;;;17.40;99.90;;;;;;5030965;28;20428;-77
2023/07/20 03:12:22;;;;;;;5.80;3.53;;;17.40;99.90;;;;;;5031223;28;20457;-77
2023/07/20 03:14:50;;;;;;;10.53;3.43;;;17.40;99.90;;;;;;5023984;28;20820;-77
2023/07/20 03:17:17;;;;;;;6.33;4.30;;;17.40;99.90;;;;;;5030400;28;20432;-76
2023/07/20 03:19:43;;;;;;;8.57;4.93;;;17.40;99.90;;;;;;5030820;28;20482;-76
2023/07/20 03:22:10;;;;;;;6.83;4.77;;;17.40;99.90;;;;;;5030959;28;20453;-76
2023/07/20 03:24:37;;;;;;;6.53;4.27;;;17.30;99.90;;;;;;5030914;28;20439;-76
2023/07/20 03:27:04;;;;;;;9.30;4.37;;;17.30;99.90;;;;;;5030785;28;20424;-76
2023/07/20 03:29:33;;;;;;;10.03;4.67;;;17.30;99.90;;;;;;5030116;28;20465;-76
2023/07/20 03:32:01;;;;;;;9.67;4.47;;;17.30;99.90;;;;;;5030872;28;20451;-76
2023/07/20 03:34:27;;;;;;;7.03;4.03;;;17.30;99.90;;;;;;5030893;28;20471;-77
2023/07/20 03:36:54;;;;;;;6.13;4.30;;;17.20;99.90;;;;;;5030877;28;20486;-76
2023/07/20 03:39:21;;;;;;;7.70;4.30;;;17.40;99.90;;;;;;5030040;28;20489;-76
2023/07/20 03:41:47;;;;;;;6.40;4.20;;;17.30;99.90;;;;;;5030932;28;20533;-76
2023/07/20 03:44:14;;;;;;;6.10;4.63;;;17.30;99.90;;;;;;5030392;28;20428;-76
2023/07/20 03:46:41;;;;;;;7.93;4.57;;;17.40;99.90;;;;;;5030508;28;20478;-77
2023/07/20 03:49:10;;;;;;;12.80;5.00;;;17.30;99.90;;;;;;5030695;28;20490;-76
2023/07/20 03:51:36;;;;;;;8.70;5.47;;;17.30;99.90;;;;;;5030728;28;20986;-77
2023/07/20 03:54:03;;;;;;;10.53;5.33;;;17.30;99.90;;;;;;5030343;28;20465;-76
2023/07/20 03:56:34;;;;;;;8.30;5.03;;;17.30;99.90;;;;;;5030264;28;20880;-76
2023/07/20 03:59:00;;;;;;;6.67;4.30;;;17.30;99.90;;;;;;5030214;28;20967;-76
2023/07/20 04:01:27;;;;;;;9.20;5.07;;;17.20;99.90;;;;;;5030480;28;20431;-77
2023/07/20 04:03:53;;;;;;;8.40;4.70;;;17.30;99.90;;;;;;5030690;28;20474;-76
2023/07/20 04:06:22;;;;;;;9.37;4.50;;;17.30;99.90;;;;;;5030123;28;20586;-76
2023/07/20 04:08:48;;;;;;;5.30;4.50;;;17.30;99.90;;;;;;5030175;28;20499;-76
2023/07/20 04:11:15;;;;;;;7.53;4.43;;;17.20;99.90;;;;;;5030242;28;20461;-76
2023/07/20 04:13:42;;;;;;;10.47;5.03;;;17.20;99.90;;;;;;5030441;28;20439;-76
2023/07/20 04:16:08;;;;;;;7.10;4.87;;;17.20;99.90;;;;;;5034108;28;20473;-76
2023/07/20 04:18:35;;;;;;;8.30;5.10;;;17.20;99.90;;;;;;5033962;28;20481;-76
2023/07/20 04:21:01;;;;;;;9.47;4.63;;;17.20;99.90;;;;;;5033492;28;20436;-76
2023/07/20 04:23:29;;;;;;;5.53;3.90;;;17.20;99.90;;;;;;5033750;28;20450;-77
2023/07/20 04:25:56;;;;;;;6.50;4.40;;;17.20;99.90;;;;;;5033552;28;20472;-76
2023/07/20 04:28:23;;;;;;;7.77;4.70;;;17.20;99.90;;;;;;5033734;28;20424;-76
2023/07/20 04:30:51;;;;;;;6.40;4.40;;;17.20;99.90;;;;;;5037575;28;20497;-76
2023/07/20 04:33:18;;;;;;;8.80;4.80;;;17.20;99.90;;;;;;5033098;28;20984;-76
2023/07/20 04:35:50;;;;;;;9.70;4.43;;;17.20;99.90;;;;;;5033347;28;20815;-76
2023/07/20 04:38:18;;;;;;;9.83;4.87;;;17.20;99.90;;;;;;5033555;28;20471;-76
2023/07/20 04:40:47;;;;;;;6.80;4.40;;;17.20;99.90;;;;;;5033471;28;20424;-77
2023/07/20 04:43:14;;;;;;;8.03;4.07;;;17.20;99.90;;;;;;5033518;28;20453;-76
2023/07/20 04:45:40;;;;;;;8.67;4.10;;;17.20;99.90;;;;;;5033202;28;20498;-76
2023/07/20 04:48:11;;;;;;;6.20;4.30;;;17.20;99.90;;;;;;5026595;28;20896;-77
2023/07/20 04:50:37;;;;;;;6.37;4.27;;;17.20;99.90;;;;;;5032953;28;20496;-75
2023/07/20 04:53:04;;;;;;;6.63;4.10;;;17.20;99.90;;;;;;5032512;28;20428;-74
2023/07/20 04:55:33;;;;;;;3.83;3.53;;;17.20;99.90;;;;;;5033070;28;20876;-70
2023/07/20 04:58:02;;;;;;;6.57;3.70;;;17.20;99.90;;;;;;5033071;28;20467;-70
2023/07/20 05:00:28;;;;;;;5.50;3.70;;;17.40;99.90;;;;;;5032886;28;20428;-70
2023/07/20 05:02:55;;;;;;;4.00;3.60;;;17.50;99.90;;;;;;5032226;28;20478;-71
2023/07/20 05:05:22;;;;;;;5.27;3.43;;;17.70;99.90;;;;;;5032674;28;20505;-70
2023/07/20 05:07:48;;;;;;;4.47;3.53;;;17.80;99.90;;;;;;5032582;28;20453;-70
2023/07/20 05:10:15;;;;;;;7.83;4.00;;;17.80;99.90;;;;;;5032407;28;20487;-70
2023/07/20 05:12:42;;;;;;;5.50;4.37;;;17.80;99.90;;;;;;5032660;28;20950;-70
2023/07/20 05:15:11;;;;;;;4.27;3.87;;;17.70;99.90;;;;;;5032798;28;20477;-70
2023/07/20 05:17:37;;;;;;;10.77;3.53;;;17.60;99.90;;;;;;5032319;28;20497;-70
2023/07/20 05:20:05;;;;;;;3.83;3.43;;;17.60;99.90;;;;;;5032106;28;20468;-70
2023/07/20 05:22:32;;;;;;;5.83;3.47;;;17.80;99.90;;;;;;5031455;28;20424;-68
2023/07/20 05:24:58;;;;;;;4.30;3.70;;;18.00;99.90;;;;;;5037315;28;20473;-69
2023/07/20 05:27:25;;;;;;;6.83;4.17;;;18.20;99.90;;;;;;5032157;28;20450;-69
2023/07/20 05:29:52;;;;;;;7.07;4.27;;;18.30;99.90;;;;;;5031739;28;20886;-69
2023/07/20 05:32:20;;;;;;;7.00;4.30;;;18.30;99.90;;;;;;5037097;28;20438;-68
2023/07/20 05:34:47;;;;;;;7.33;4.83;;;18.30;99.90;;;;;;5032268;28;20473;-69
2023/07/20 05:37:13;;;;;;;5.83;4.73;;;18.20;99.90;;;;;;5030042;28;20453;-68
2023/07/20 05:39:41;;;;;;;8.20;4.50;;;18.20;99.90;;;;;;5027823;28;20455;-69
2023/07/20 05:42:08;;;;;;;6.00;3.90;;;18.20;99.90;;;;;;5027996;28;20450;-69
2023/07/20 05:44:35;;;;;;;5.40;4.50;;;18.30;99.90;;;;;;5028318;28;21062;-68
2023/07/20 05:47:02;;;;;;;5.73;4.47;;;18.40;99.90;;;;;;5028333;28;20428;-68
2023/07/20 05:49:30;;;;;;;5.47;4.17;;;18.40;99.90;;;;;;5028478;28;20459;-68
2023/07/20 05:51:57;;;;;;;7.97;4.13;;;18.40;99.90;;;;;;5028535;28;20466;-68
2023/07/20 05:54:25;;;;;;;5.87;4.40;;;18.50;99.90;;;;;;5028306;28;20473;-70
2023/07/20 05:56:52;;;;;;;9.23;3.67;;;18.60;99.90;;;;;;5026928;28;20464;-70
2023/07/20 05:59:19;;;;;;;4.93;3.70;;;18.60;99.90;;;;;;5026217;28;21047;-70
2023/07/20 06:01:46;;;;;;;5.30;3.97;;;18.60;99.90;;;;;;5027277;28;20780;-70
2023/07/20 06:04:13;;;;;;;4.43;4.03;;;18.80;99.90;;;;;;5028189;28;20531;-70
2023/07/20 06:06:41;;;;;;;4.10;3.70;;;18.90;99.90;;;;;;5027751;28;20489;-70
2023/07/20 06:09:11;;;;;;;5.37;4.10;;;19.10;99.90;;;;;;5026958;28;20432;-70
2023/07/20 06:11:38;;;;;;;3.77;3.47;;;19.10;99.90;;;;;;5027784;28;20454;-70
2023/07/20 06:14:05;;;;;;;5.13;3.67;;;19.10;99.90;;;;;;5027814;28;20941;-70
2023/07/20 06:16:31;;;;;;;5.00;3.53;;;19.30;99.90;;;;;;5027851;28;20931;-71
2023/07/20 06:18:58;;;;;;;5.03;3.73;;;19.40;99.90;;;;;;5027508;28;21759;-71
2023/07/20 06:21:24;;;;;;;4.00;3.60;;;19.40;99.90;;;;;;5027621;28;20916;-70
2023/07/20 06:23:53;;;;;;;8.00;4.10;;;19.10;99.90;;;;;;5027843;28;20428;-71
2023/07/20 06:26:19;;;;;;;8.07;3.60;;;19.00;99.90;;;;;;5027383;28;20984;-70
2023/07/20 06:28:46;;;;;;;5.23;3.63;;;18.80;99.90;;;;;;5027786;28;20881;-72
2023/07/20 06:31:13;;;;;;;5.93;3.90;;;18.70;99.90;;;;;;5026876;28;20789;-70
2023/07/20 06:33:39;;;;;;;8.10;5.73;;;18.60;99.90;;;;;;5027536;28;21166;-71
2023/07/20 06:36:06;;;;;;;13.33;6.40;;;18.60;99.90;;;;;;5026631;28;20448;-71
2023/07/20 06:38:33;;;;;;;17.60;6.27;;;18.60;99.90;;;;;;5025394;28;20485;-70
2023/07/20 06:41:01;;;;;;;8.70;6.33;;;18.50;99.90;;;;;;5022764;28;20432;-71
2023/07/20 06:43:27;;;;;;;9.40;6.90;;;18.60;99.90;;;;;;5021893;28;20490;-71
2023/07/20 06:45:54;;;;;;;12.13;7.60;;;18.70;99.90;;;;;;5027546;28;20477;-70
2023/07/20 06:48:22;;;;;;;11.60;6.47;;;18.80;99.90;;;;;;5027581;28;20475;-71
2023/07/20 06:50:49;;;;;;;11.70;6.60;;;18.80;99.90;;;;;;5025751;28;20500;-70
2023/07/20 06:53:15;;;;;;;10.60;6.40;;;18.90;99.90;;;;;;5027621;28;20535;-69
2023/07/20 06:55:43;;;;;;;8.33;6.13;;;19.00;99.90;;;;;;5027318;28;21121;-69
2023/07/20 06:58:11;;;;;;;6.63;4.93;;;19.20;99.90;;;;;;5026497;28;20432;-70
2023/07/20 07:00:38;;;;;;;17.27;5.50;;;19.20;99.90;;;;;;5026651;28;20538;-69
2023/07/20 07:03:04;;;;;;;8.10;6.00;;;19.10;99.90;;;;;;5027271;28;20490;-70
2023/07/20 07:05:31;;;;;;;9.23;7.07;;;19.10;99.90;;;;;;5026812;28;20906;-69
2023/07/20 07:07:58;;;;;;;11.13;6.67;;;19.10;99.90;;;;;;5026905;28;20453;-70
2023/07/20 07:10:24;;;;;;;13.57;6.60;;;19.00;99.90;;;;;;5027243;28;20503;-70
2023/07/20 07:12:51;;;;;;;8.70;5.70;;;18.90;99.90;;;;;;5027416;28;20445;-70
2023/07/20 07:15:19;;;;;;;11.13;6.30;;;19.00;99.90;;;;;;5027225;28;20464;-70
2023/07/20 07:17:46;;;;;;;11.93;5.90;;;18.90;99.90;;;;;;5027047;28;20453;-70
2023/07/20 07:20:12;;;;;;;6.53;5.00;;;18.90;99.90;;;;;;5025850;28;20930;-70
2023/07/20 07:22:39;;;;;;;14.47;5.53;;;18.90;99.90;;;;;;5026735;28;20929;-69
2023/07/20 07:25:07;;;;;;;8.23;5.20;;;18.90;99.90;;;;;;5027168;28;20499;-70
2023/07/20 07:27:34;;;;;;;9.10;4.30;;;18.90;99.90;;;;;;5027286;28;20909;-70
2023/07/20 07:30:00;;;;;;;8.87;5.77;;;19.10;99.90;;;;;;5026161;28;20544;-70
2023/07/20 07:32:28;;;;;;;6.80;4.70;;;19.10;99.90;;;;;;5027188;28;20436;-69
2023/07/20 07:34:56;;;;;;;7.00;5.43;;;19.20;99.90;;;;;;5026789;28;20502;-70
2023/07/20 07:37:23;;;;;;;5.80;4.73;;;19.20;99.90;;;;;;5027387;28;20469;-70
2023/07/20 07:39:49;;;;;;;7.20;5.00;;;19.30;99.90;;;;;;5026353;28;20467;-70
2023/07/20 07:42:16;;;;;;;5.73;5.13;;;19.30;99.90;;;;;;5026972;28;21834;-70
2023/07/20 07:44:44;;;;;;;7.13;6.40;;;19.30;99.90;;;;;;5026561;28;20476;-71
2023/07/20 07:47:10;;;;;;;8.13;5.20;;;19.10;99.90;;;;;;5026157;28;20467;-70
2023/07/20 07:49:38;;;;;;;7.13;5.07;;;19.00;99.90;;;;;;5028430;28;20432;-70
2023/07/20 07:52:06;;;;;;;11.40;5.03;;;19.20;99.90;;;;;;5030834;28;20471;-70
2023/07/20 07:54:33;;;;;;;8.27;5.07;;;19.30;99.90;;;;;;5030774;28;20455;-70
2023/07/20 07:56:59;;;;;;;7.10;4.43;;;19.40;99.90;;;;;;5030333;28;20449;-70
2023/07/20 07:59:26;;;;;;;7.83;5.00;;;19.70;99.90;;;;;;5030441;28;20551;-70
2023/07/20 08:01:53;;;;;;;8.63;5.00;;;19.70;99.90;;;;;;5030144;28;20457;-70
2023/07/20 08:04:19;;;;;;;12.63;4.90;;;19.70;99.90;;;;;;5030184;28;20604;-70
2023/07/20 08:06:47;;;;;;;5.13;4.63;;;19.70;99.90;;;;;;5030181;28;20449;-69
2023/07/20 08:09:14;;;;;;;9.37;5.13;;;19.80;99.90;;;;;;5030495;28;20501;-70
2023/07/20 08:11:41;;;;;;;7.10;4.37;;;19.80;99.90;;;;;;5029948;28;20445;-70
2023/07/20 08:14:07;;;;;;;6.30;5.00;;;20.00;99.90;;;;;;5030042;28;20431;-71
2023/07/20 08:16:34;;;;;;;9.77;5.07;;;20.20;99.90;;;;;;5030171;28;21001;-70
2023/07/20 08:19:02;;;;;;;6.67;5.00;;;20.60;99.90;;;;;;5029547;28;20481;-70
2023/07/20 08:21:28;;;;;;;8.23;4.67;;;21.00;99.90;;;;;;5029922;28;20505;-70
2023/07/20 08:23:56;;;;;;;4.93;4.50;;;21.20;99.90;;;;;;5029125;28;21211;-71
2023/07/20 08:26:24;;;;;;;4.43;4.03;;;21.30;99.90;;;;;;5028927;28;20515;-71
2023/07/20 08:28:50;;;;;;;6.37;4.40;;;21.10;99.90;;;;;;5029122;28;20960;-70
2023/07/20 08:31:17;;;;;;;4.80;4.10;;;21.00;99.90;;;;;;5028349;28;20462;-70
2023/07/20 08:33:44;;;;;;;6.70;4.10;;;21.00;99.90;;;;;;5029365;28;20456;-71
2023/07/20 08:36:10;;;;;;;7.20;4.50;;;20.90;99.90;;;;;;5028935;28;20464;-70
2023/07/20 08:38:37;;;;;;;6.70;4.97;;;20.80;99.90;;;;;;5029047;28;20489;-72
2023/07/20 08:41:05;;;;;;;10.33;4.50;;;20.90;99.90;;;;;;5028577;28;20489;-71
2023/07/20 08:43:34;;;;;;;6.50;5.50;;;21.00;99.90;;;;;;5029418;28;20539;-71
2023/07/20 08:46:02;;;;;;;7.57;4.57;;;21.10;99.90;;;;;;5029043;28;20473;-71
2023/07/20 08:48:30;;;;;;;4.37;3.97;;;21.40;99.90;;;;;;5029120;28;20453;-72
2023/07/20 08:51:00;;;;;;;7.97;4.40;;;21.60;99.90;;;;;;5028257;28;20480;-70
2023/07/20 08:53:28;;;;;;;5.63;4.40;;;21.70;99.90;;;;;;5028798;28;20861;-72
2023/07/20 08:55:54;;;;;;;9.37;4.90;;;22.00;99.90;;;;;;5028843;28;20469;-69
2023/07/20 08:58:25;;;;;;;5.13;4.63;;;22.30;99.90;;;;;;5028865;28;20449;-69
2023/07/20 09:00:52;;;;;;;9.00;4.80;;;22.20;99.90;;;;;;5027659;28;20904;-70
2023/07/20 09:03:20;;;;;;;8.73;4.40;;;22.30;99.90;;;;;;5028716;28;21271;-70
2023/07/20 09:05:46;;;;;;;7.50;4.53;;;22.40;99.90;;;;;;5028238;28;20977;-70
2023/07/20 09:08:13;;;;;;;9.00;4.60;;;22.60;99.90;;;;;;5027769;28;20515;-71
2023/07/20 09:10:40;;;;;;;8.80;4.67;;;22.60;99.90;;;;;;5028559;28;20461;-71
2023/07/20 09:13:06;;;;;;;11.57;4.40;;;22.50;99.90;;;;;;5028823;28;20446;-71
2023/07/20 09:15:34;;;;;;;9.57;4.10;;;22.40;99.90;;;;;;5028466;28;20515;-71
2023/07/20 09:18:03;;;;;;;6.60;3.90;;;22.10;99.90;;;;;;5028207;28;20507;-71
2023/07/20 09:20:33;;;;;;;9.80;3.90;;;22.00;99.90;;;;;;5028090;28;20544;-71
2023/07/20 09:22:59;;;;;;;4.10;3.60;;;22.30;99.90;;;;;;5028741;28;20540;-70
2023/07/20 09:25:28;;;;;;;5.73;3.67;;;22.40;99.90;;;;;;5028629;28;20534;-71
2023/07/20 09:27:55;;;;;;;3.73;3.30;;;22.60;99.90;;;;;;5028401;28;20446;-70
2023/07/20 09:30:26;;;;;;;5.67;3.70;;;22.80;99.90;;;;;;5027109;28;20466;-70
2023/07/20 09:32:54;;;;;;;5.40;4.13;;;22.80;99.90;;;;;;5028437;28;20449;-70
2023/07/20 09:35:22;;;;;;;8.07;4.33;;;22.70;99.90;;;;;;5027837;28;20477;-70
2023/07/20 09:37:51;;;;;;;6.73;3.57;;;22.60;99.90;;;;;;5028423;28;20454;-70
2023/07/20 09:40:19;;;;;;;5.80;3.87;;;22.50;99.90;;;;;;5027703;28;20496;-70
2023/07/20 09:42:46;;;;;;;5.03;3.43;;;22.60;99.90;;;;;;5028067;28;20461;-70
2023/07/20 09:45:13;;;;;;;4.07;3.20;;;22.80;99.90;;;;;;5027500;28;20474;-70
2023/07/20 09:47:41;;;;;;;5.00;3.37;;;23.00;99.90;;;;;;5027635;28;20462;-68
2023/07/20 09:50:12;;;;;;;5.63;3.63;;;23.60;99.90;;;;;;5027799;28;20499;-69
2023/07/20 09:52:41;;;;;;;4.80;3.10;;;24.20;99.90;;;;;;5027475;28;20457;-68
2023/07/20 09:55:08;;;;;;;5.60;3.40;;;24.20;99.90;;;;;;5027683;28;20577;-69
2023/07/20 09:57:36;;;;;;;6.47;3.60;;;23.80;99.90;;;;;;5028433;28;20449;-68
2023/07/20 10:00:08;;;;;;;3.50;2.90;;;23.50;99.90;;;;;;5027758;28;20485;-67
2023/07/20 10:02:39;;;;;;;4.53;3.03;;;23.00;99.90;;;;;;5028292;28;20878;-68
2023/07/20 10:05:10;;;;;;;5.87;3.30;;;22.90;99.90;;;;;;5027362;28;20992;-68
2023/07/20 10:07:44;;;;;;;6.90;3.60;;;22.90;99.90;;;;;;5027594;28;20945;-69
2023/07/20 10:10:11;;;;;;;5.60;3.30;;;23.00;99.90;;;;;;5027517;28;20449;-68
2023/07/20 10:12:40;;;;;;;3.37;3.03;;;23.30;99.90;;;;;;5028240;28;20461;-69
2023/07/20 10:15:16;;;;;;;3.93;3.10;;;23.80;99.90;;;;;;5027563;28;21087;-69
2023/07/20 10:17:54;;;;;;;2.97;2.70;;;24.20;99.90;;;;;;5027613;28;20457;-68
2023/07/20 10:20:21;;;;;;;8.13;3.33;;;24.20;99.90;;;;;;5027903;28;20489;-69
2023/07/20 10:22:50;;;;;;;3.47;3.17;;;24.50;99.90;;;;;;5027861;28;20549;-69
2023/07/20 10:25:21;;;;;;;4.93;2.77;;;24.50;99.90;;;;;;5028041;28;20481;-69
2023/07/20 10:27:48;;;;;;;8.40;2.83;;;24.40;99.90;;;;;;5028041;28;20488;-68
2023/07/20 10:30:16;;;;;;;5.93;2.93;;;24.40;99.90;;;;;;5027440;28;20503;-69
2023/07/20 10:32:44;;;;;;;6.03;3.30;;;24.70;99.90;;;;;;5027899;28;20962;-68
2023/07/20 10:35:15;;;;;;;3.93;3.10;;;24.60;99.90;;;;;;5027499;28;20539;-69
2023/07/20 10:37:51;;;;;;;3.97;2.93;;;24.60;99.90;;;;;;5027734;28;21571;-69
2023/07/20 10:40:34;;;;;;;3.00;2.70;;;25.00;99.90;;;;;;5026935;28;21084;-69
2023/07/20 10:43:03;;;;;;;5.83;3.03;;;25.10;99.90;;;;;;5027073;28;20969;-68
2023/07/20 10:45:37;;;;;;;3.70;2.90;;;25.10;99.90;;;;;;5027474;28;20473;-69
2023/07/20 10:48:05;;;;;;;3.50;3.10;;;24.90;99.90;;;;;;5027329;28;20454;-69
2023/07/20 10:50:33;;;;;;;3.50;3.20;;;25.20;99.90;;;;;;5027612;28;20516;-68
2023/07/20 10:53:11;;;;;;;5.20;3.23;;;25.30;99.90;;;;;;5027525;28;20457;-68
2023/07/20 10:55:38;;;;;;;4.60;2.90;;;25.70;99.90;;;;;;5027237;28;20559;-68
2023/07/20 10:58:09;;;;;;;3.10;2.80;;;25.70;99.90;;;;;;5027713;28;20457;-68
2023/07/20 11:00:36;;;;;;;3.30;2.70;;;25.70;99.90;;;;;;5026817;28;21001;-69
2023/07/20 11:03:03;;;;;;;3.00;2.53;;;26.00;99.90;;;;;;5026776;28;20445;-69
2023/07/20 11:05:37;;;;;;;4.20;2.97;;;26.20;99.90;;;;;;5026631;28;21021;-70
2023/07/20 11:08:07;;;;;;;4.50;3.50;;;26.50;99.90;;;;;;5026887;28;20458;-67
2023/07/20 11:10:34;;;;;;;3.07;2.87;;;26.50;99.90;;;;;;5027862;28;20580;-68
2023/07/20 11:13:21;;;;;;;7.33;2.50;;;26.30;99.90;;;;;;5027339;28;20528;-69
2023/07/20 11:15:48;;;;;;;5.27;2.43;;;26.20;99.90;;;;;;5027350;28;20563;-67
2023/07/20 11:18:15;;;;;;;3.40;3.10;;;26.40;99.90;;;;;;5027204;28;20545;-67
2023/07/20 11:20:42;;;;;;;5.13;2.90;;;26.70;99.90;;;;;;5026188;28;20477;-67
2023/07/20 11:23:11;;;;;;;6.70;2.97;;;26.70;99.90;;;;;;5026788;28;20488;-67
2023/07/20 11:25:39;;;;;;;7.40;3.20;;;26.40;99.90;;;;;;5030375;28;20547;-67
2023/07/20 11:28:08;;;;;;;3.60;3.00;;;26.50;99.90;;;;;;5030477;28;20449;-68
2023/07/20 11:30:35;;;;;;;2.87;2.67;;;26.20;99.90;;;;;;5030701;28;20507;-69
2023/07/20 11:33:01;;;;;;;5.23;2.87;;;26.30;99.90;;;;;;5030249;28;20453;-68
2023/07/20 11:35:28;;;;;;;2.80;2.60;;;26.50;99.90;;;;;;5030962;28;20472;-68
2023/07/20 11:37:56;;;;;;;2.63;2.43;;;26.70;99.90;;;;;;5031605;28;20441;-68
2023/07/20 11:40:25;;;;;;;3.20;2.90;;;26.50;99.90;;;;;;5030112;28;20600;-68
2023/07/20 11:42:51;;;;;;;3.57;2.70;;;26.30;99.90;;;;;;5030719;28;20790;-68
2023/07/20 11:45:20;;;;;;;2.90;2.70;;;26.30;99.90;;;;;;5030440;28;20500;-68
2023/07/20 11:47:46;;;;;;;6.30;3.13;;;26.50;99.90;;;;;;5030350;28;20945;-68
2023/07/20 11:50:13;;;;;;;3.53;2.90;;;26.50;99.90;;;;;;5030192;28;20518;-68
2023/07/20 11:52:41;;;;;;;3.10;2.60;;;26.70;99.90;;;;;;5030105;28;20471;-67
2023/07/20 11:55:09;;;;;;;2.83;2.53;;;26.60;99.90;;;;;;5030962;28;20461;-67
2023/07/20 11:57:38;;;;;;;3.20;2.77;;;26.50;99.90;;;;;;5030313;28;20463;-68
2023/07/20 12:00:10;;;;;;;3.03;2.70;;;26.30;99.90;;;;;;5029694;28;20531;-68
2023/07/20 12:02:39;;;;;;;9.10;2.53;;;26.40;99.90;;;;;;5030746;28;20457;-69
2023/07/20 12:05:07;;;;;;;3.10;2.57;;;26.70;99.90;;;;;;5029827;28;20879;-68
2023/07/20 12:07:39;;;;;;;2.80;2.60;;;27.00;99.90;;;;;;5029876;28;20556;-68
2023/07/20 12:10:07;;;;;;;2.60;2.40;;;27.30;99.90;;;;;;5030367;28;20461;-68
2023/07/20 12:12:34;;;;;;;2.83;2.50;;;27.60;99.90;;;;;;5030172;28;20461;-68
2023/07/20 12:15:20;;;;;;;2.80;2.17;;;27.50;99.90;;;;;;5030421;28;20519;-68
2023/07/20 12:17:50;;;;;;;3.90;2.80;;;27.00;99.90;;;;;;5029923;28;20453;-67
2023/07/20 12:20:26;;;;;;;4.37;2.70;;;26.50;99.90;;;;;;5029484;28;20441;-68
2023/07/20 12:22:53;;;;;;;3.67;2.70;;;26.30;99.90;;;;;;5029782;28;20452;-68
2023/07/20 12:25:19;;;;;;;4.23;3.50;;;26.10;99.90;;;;;;5029486;28;20473;-68
2023/07/20 12:27:46;;;;;;;3.03;2.80;;;26.10;99.90;;;;;;5030424;28;20450;-68
2023/07/20 12:30:14;;;;;;;3.00;2.70;;;26.10;99.90;;;;;;5029737;28;20547;-68
2023/07/20 12:32:42;;;;;;;2.80;2.60;;;26.20;99.90;;;;;;5030005;28;20452;-68
2023/07/20 12:35:11;;;;;;;2.90;2.60;;;26.20;99.90;;;;;;5029335;28;20473;-69
2023/07/20 12:37:38;;;;;;;3.50;2.93;;;25.90;99.90;;;;;;5030114;28;20496;-68
2023/07/20 12:40:10;;;;;;;3.43;3.13;;;26.20;99.90;;;;;;5030086;28;20607;-68
2023/07/20 12:42:38;;;;;;;6.03;3.10;;;26.40;99.90;;;;;;5029760;28;20450;-68
2023/07/20 12:45:05;;;;;;;3.03;2.50;;;26.50;99.90;;;;;;5029453;28;20472;-69
2023/07/20 12:47:32;;;;;;;4.33;2.60;;;26.40;99.90;;;;;;5029979;28;20519;-69
2023/07/20 12:50:00;;;;;;;2.80;2.13;;;26.30;99.90;;;;;;5029567;28;20511;-69